AirNav   Everest Fuels
 
 1005 users online  

2TX Salado Airport
Salado, Texas, USA

GOING TO SALADO?


FAA INFORMATION EFFECTIVE 15 JULY 2021

Location

FAA Identifier: 2TX
Lat/Long: 30-55-14.6450N 097-32-25.8150W
30-55.244083N 097-32.430250W
30.9207347,-97.5405042
(estimated)
Elevation: 685 ft. / 209 m (estimated)
Variation: 07E (1985)
From city: 2 miles S of SALADO, TX
Time zone: UTC -5 (UTC -6 during Standard Time)
Zip code: 76571

Airport Operations

Airport use: Open to the public
Activation date: 04/1975
Control tower: no
ARTCC: FORT WORTH CENTER
FSS: SAN ANGELO FLIGHT SERVICE STATION
NOTAMs facility: SJT (NOTAM-D service available)
Attendance: UNATNDD
Wind indicator: yes
Segmented circle: no

Airport Communications

CTAF: 122.9
WX AWOS-3PT at ILE (12 nm NW): 128.575 (254-690-3131)
WX AWOS-3PT at TPL (15 nm NE): 134.975 (254-774-8337)
WX AWOS-3PT at GTU (16 nm SW): PHONE 512-869-3430

Nearby radio navigation aids

VOR radial/distance  VOR name  Freq  Var
GRKr109/15.6GRAY VOR/DME111.8007E
CWKr353/32.5CENTEX VORTAC112.8006E
AGJr112/34.8GOOCH SPRINGS VORTAC112.5005E

 
NDB name  Hdg/Dist  Freq  Var  ID
IRESH121/10.627805EIL .. .-..

Airport Services

Parking: tiedowns
Airframe service: NONE
Powerplant service: NONE
Bottled oxygen: NONE
Bulk oxygen: NONE

Runway Information

Runway 1/19

Dimensions: 3190 x 100 ft. / 972 x 30 m
Surface: turf/dirt, in fair condition
RUNWAY 1  RUNWAY 19
Traffic pattern: leftright
Obstructions: 5 ft. fence10 ft. road

Airport Ownership and Management from official FAA records

Ownership: Privately-owned
Owner: SALADO AIRPORT LLC
15771 SOUTH I35
SALADO, TX 76571
Phone 512-507-6521
Manager: SALADO AIRPORT LLC
15771 SOUTH I35
SALADO, TX 76571
Phone 512-507-6521

Airport Operational Statistics

Aircraft based on the field: 1
Single engine airplanes: 1
    
Aircraft operations: avg 57/week *
97% local general aviation
3% transient general aviation
* for 12-month period ending 31 December 2018

Additional Remarks

UNUSBL DURG AND 24 HRS AFTER HEAVY RAIN. RWY SOFT WHEN WET, CALL TO CONFIRM COND.
FOR CD CTC FORT WORTH ARTCC AT 817-858-7584.
RWY DEFINED BY MOWING.
TWO ANTENNAS 1/2 TO 3/4 MILE NORTH OF ARPT.

Instrument Procedures

There are no published instrument procedures at 2TX.

Some nearby airports with instrument procedures:

KILE - Skylark Field Airport (12 nm NW)
KTPL - Draughon-Miller Central Texas Regional Airport (15 nm NE)
KHLR - Hood AHP Airport (16 nm NW)
KGTU - Georgetown Municipal Airport (16 nm SW)
KGRK - Robert Gray Army Airfield (17 nm NW)
 
Loc | Ops | Rwys | IFR | FBO | Links
Com | Nav | Svcs | Stats | Notes
Area around 2TX (Salado Airport)
 
Road maps at: MapQuest Bing Google
 
Aerial photo
WARNING: Photo may not be current or correct
Aerial photo of 2TX (Salado Airport)
Do you have a better or more recent aerial photo of Salado Airport that you would like to share? If so, please send us your photo.

 
Sectional chart

 
Airport distance calculator
Flying to Salado Airport? Find the distance to fly.

From to 2TX

Sunrise and sunset
Times for 27-Jul-2021
 Local
(UTC-5)
 Zulu
(UTC)
Morning civil twilight06:1911:19
Sunrise06:4511:45
Sunset20:2801:28
Evening civil twilight20:5401:54

Current date and time
Zulu (UTC)  28-Jul-2021 02:34:56
Local (UTC-5)  27-Jul-2021 21:34:56
 
METAR
KILE 
11nm NW 
280156Z AUTO 13006KT 10SM CLR 31/19 A2999 RMK AO2 SLP140 T03110189
KTPL 
15nm NE 
280151Z AUTO 14005KT 10SM CLR 30/19 A2998 RMK AO2 SLP140 T03000194
KHLR 
16nm NW 
280158Z AUTO 13008KT 8SM CLR 31/19 A2998 RMK AO2 SLP139 T03140185
KGTU 
17nm SW 
280156Z 15003KT 10SM CLR 32/18 A3000 RMK AO2 SLP150 T03170178
KGRK 
17nm NW 
280156Z AUTO 16003KT 9SM CLR 30/18 A2997 RMK AO2 SLP137 T02990177
KT74 
21nm S 
280215Z AUTO 15005KT 10SM CLR 27/22 A2997 RMK AO2 T02700221
TAF
KGRK 
17nm NW 
280000Z 2800/2906 25009KT 9999 FEW055 QNH2991INS BECMG 2812/2813 13009KT 9999 FEW080 BKN120 QNH3001INS BECMG 2822/2823 VRB06KT 9999 FEW120 QNH2998INS TX35/2801Z TN24/2811Z
NOTAMs
Click for the latest NOTAMs
NOTAMs are issued by the DoD/FAA and will open in a separate window not controlled by AirNav.

 

 
 

Would you like to see your business listed on this page?

 If your business provides an interesting product or service to pilots, flight crews, aircraft, or users of the Salado Airport, you should consider listing it here.  To start the listing process, click on the button below
 
Add a business
 

Other Pages about Salado Airport

Update a link
 
Copyright © AirNav, LLC. All rights reserved. Privacy Policy  Contact